createdAt,value
2023-02-22T00:01:28.312Z,91.91
2023-02-22T00:03:54.909Z,91.47
2023-02-22T00:06:25.181Z,91.85
2023-02-22T00:08:52.570Z,91.59
2023-02-22T00:11:20.680Z,91.95
2023-02-22T00:13:50.392Z,91.40
2023-02-22T00:16:21.826Z,91.28
2023-02-22T00:18:49.603Z,90.75
2023-02-22T00:21:17.389Z,90.91
2023-02-22T00:23:46.641Z,90.60
2023-02-22T00:26:18.426Z,91.13
2023-02-22T00:28:50.711Z,90.59
2023-02-22T00:31:18.895Z,90.28
2023-02-22T00:33:45.776Z,90.23
2023-02-22T00:36:13.469Z,90.78
2023-02-22T00:38:41.554Z,90.71
2023-02-22T00:41:08.741Z,91.03
2023-02-22T00:43:35.548Z,90.28
2023-02-22T00:46:02.716Z,90.16
2023-02-22T00:48:29.489Z,90.13
2023-02-22T00:50:56.390Z,90.30
2023-02-22T00:53:24.723Z,90.83
2023-02-22T00:55:51.772Z,90.06
2023-02-22T00:58:18.742Z,89.97
2023-02-22T01:00:45.697Z,90.13
2023-02-22T01:03:15.069Z,90.39
2023-02-22T01:05:42.740Z,90.09
2023-02-22T01:08:13.040Z,90.77
2023-02-22T01:10:40.054Z,89.96
2023-02-22T01:13:12.585Z,89.89
2023-02-22T01:15:41.884Z,90.02
2023-02-22T01:18:09.452Z,90.25
2023-02-22T01:20:36.882Z,90.09
2023-02-22T01:23:07.295Z,90.76
2023-02-22T01:25:34.960Z,90.85
2023-02-22T01:28:02.852Z,90.94
2023-02-22T01:30:33.097Z,90.55
2023-02-22T01:33:01.847Z,90.20
2023-02-22T01:35:32.831Z,90.49
2023-02-22T01:37:59.773Z,90.18
2023-02-22T01:40:33.211Z,90.41
2023-02-22T01:43:03.549Z,90.14
2023-02-22T01:45:30.147Z,89.83
2023-02-22T01:48:03.881Z,90.53
2023-02-22T01:50:35.141Z,90.59
2023-02-22T01:53:03.172Z,90.00
2023-02-22T01:55:30.929Z,89.70
2023-02-22T01:57:57.955Z,89.49
2023-02-22T02:00:27.707Z,89.78
2023-02-22T02:03:00.077Z,89.17
2023-02-22T02:05:31.374Z,89.18
2023-02-22T02:08:03.480Z,88.71
2023-02-22T02:10:31.545Z,88.09
2023-02-22T02:12:58.813Z,88.58
2023-02-22T02:15:29.397Z,88.70
2023-02-22T02:18:00.804Z,89.00
2023-02-22T02:20:38.552Z,88.69
2023-02-22T02:23:29.619Z,88.39
2023-02-22T02:26:32.424Z,88.51
2023-02-22T02:29:14.310Z,88.65
2023-02-22T02:31:59.531Z,87.90
2023-02-22T02:34:37.705Z,87.89
2023-02-22T02:37:18.127Z,88.50
2023-02-22T02:39:59.255Z,89.36
2023-02-22T02:42:35.458Z,89.09
2023-02-22T02:45:11.810Z,90.34
2023-02-22T02:47:44.681Z,89.96
2023-02-22T02:50:22.415Z,89.90
2023-02-22T02:52:50.959Z,89.69
2023-02-22T02:55:18.768Z,89.46
2023-02-22T02:57:45.420Z,90.00
2023-02-22T03:00:24.440Z,89.76
2023-02-22T03:03:25.034Z,89.94
2023-02-22T03:06:10.250Z,90.41
2023-02-22T03:09:04.040Z,89.26
2023-02-22T03:12:02.270Z,89.30
2023-02-22T03:15:00.364Z,90.11
2023-02-22T03:17:45.534Z,90.01
2023-02-22T03:20:31.899Z,89.91
2023-02-22T03:23:12.669Z,90.71
2023-02-22T03:25:51.886Z,90.09
2023-02-22T03:28:21.620Z,90.49
2023-02-22T03:30:57.561Z,90.67
2023-02-22T03:33:33.977Z,90.43
2023-02-22T03:36:25.054Z,90.00
2023-02-22T03:38:56.959Z,90.56
2023-02-22T03:41:25.846Z,89.80
2023-02-22T03:43:56.617Z,91.31
2023-02-22T03:46:23.822Z,90.67
2023-02-22T03:49:04.740Z,90.03
2023-02-22T03:51:31.504Z,92.00
2023-02-22T03:53:58.189Z,90.33
2023-02-22T03:56:37.251Z,90.79
2023-02-22T03:59:10.076Z,91.32
2023-02-22T04:01:36.940Z,91.17
2023-02-22T04:04:03.893Z,91.05
2023-02-22T04:06:30.582Z,91.49
2023-02-22T04:08:57.286Z,91.87
2023-02-22T04:11:23.870Z,91.11
2023-02-22T04:13:50.622Z,91.52
2023-02-22T04:16:17.292Z,92.28
2023-02-22T04:18:44.001Z,92.91
2023-02-22T04:21:10.668Z,93.14
2023-02-22T04:23:37.352Z,94.31
2023-02-22T04:26:04.038Z,94.11
2023-02-22T04:28:30.747Z,94.64
2023-02-22T04:30:57.407Z,94.04
2023-02-22T04:33:24.169Z,93.53
2023-02-22T04:35:51.590Z,94.13
2023-02-22T04:38:18.557Z,94.18
2023-02-22T04:40:46.234Z,95.18
2023-02-22T04:43:12.879Z,95.38
2023-02-22T04:45:39.540Z,94.41
2023-02-22T04:48:06.193Z,95.18
2023-02-22T04:50:32.777Z,94.78
2023-02-22T04:52:59.449Z,94.45
2023-02-22T04:55:26.109Z,95.32
2023-02-22T04:57:52.677Z,95.51
2023-02-22T05:00:21.803Z,96.66
2023-02-22T05:02:49.625Z,96.36
2023-02-22T05:05:18.613Z,95.68
2023-02-22T05:07:45.227Z,95.91
2023-02-22T05:10:11.864Z,95.96
2023-02-22T05:12:38.445Z,95.86
2023-02-22T05:15:06.786Z,95.14
2023-02-22T05:17:34.010Z,95.15
2023-02-22T05:20:00.660Z,95.12
2023-02-22T05:22:27.372Z,95.33
2023-02-22T05:24:54.054Z,96.00
2023-02-22T05:27:20.793Z,95.57
2023-02-22T05:29:47.403Z,95.44
2023-02-22T05:32:14.380Z,95.37
2023-02-22T05:34:41.186Z,95.46
2023-02-22T05:37:07.847Z,95.35
2023-02-22T05:39:34.550Z,95.67
2023-02-22T05:42:01.267Z,95.28
2023-02-22T05:44:28.221Z,95.49
2023-02-22T05:46:54.817Z,95.69
2023-02-22T05:49:21.448Z,95.52
2023-02-22T05:51:48.069Z,95.34
2023-02-22T05:54:14.684Z,96.25
2023-02-22T05:56:41.355Z,95.63
2023-02-22T05:59:07.929Z,95.14
2023-02-22T06:01:34.520Z,94.77
2023-02-22T06:04:01.222Z,95.44
2023-02-22T06:06:27.857Z,94.09
2023-02-22T06:08:54.501Z,95.06
2023-02-22T06:11:21.141Z,94.82
2023-02-22T06:13:52.478Z,95.23
2023-02-22T06:16:21.520Z,95.44
2023-02-22T06:18:48.829Z,96.15
2023-02-22T06:21:15.950Z,96.16
2023-02-22T06:23:42.716Z,97.15
2023-02-22T06:26:10.484Z,97.05
2023-02-22T06:28:37.140Z,96.00
2023-02-22T06:31:04.053Z,95.49
2023-02-22T06:33:31.104Z,95.17
2023-02-22T06:35:57.828Z,94.93
2023-02-22T06:38:27.992Z,96.04
2023-02-22T06:40:58.089Z,96.76
2023-02-22T06:43:25.900Z,96.91
2023-02-22T06:45:53.155Z,97.42
2023-02-22T06:48:19.889Z,96.54
2023-02-22T06:50:46.619Z,96.95
2023-02-22T06:53:13.242Z,96.18
2023-02-22T06:55:39.800Z,94.88
2023-02-22T06:58:06.461Z,95.17
2023-02-22T07:00:33.881Z,94.14
2023-02-22T07:03:01.167Z,95.13
2023-02-22T07:05:28.778Z,95.63
2023-02-22T07:08:02.550Z,96.32
2023-02-22T07:10:31.396Z,96.43
2023-02-22T07:12:58.327Z,96.32
2023-02-22T07:15:27.952Z,96.89
2023-02-22T07:17:54.648Z,97.07
2023-02-22T07:20:23.002Z,95.86
2023-02-22T07:22:50.356Z,95.87
2023-02-22T07:25:17.535Z,95.47
2023-02-22T07:27:44.439Z,94.89
2023-02-22T07:30:20.660Z,93.99
2023-02-22T07:32:47.553Z,94.57
2023-02-22T07:35:23.173Z,93.00
2023-02-22T07:37:49.921Z,93.15
2023-02-22T07:40:18.052Z,93.17
2023-02-22T07:43:14.293Z,93.44
2023-02-22T07:45:41.269Z,92.70
2023-02-22T07:48:09.226Z,91.82
2023-02-22T07:50:36.318Z,91.42
2023-02-22T07:53:06.141Z,89.93
2023-02-22T07:55:34.176Z,88.81
2023-02-22T07:58:03.879Z,88.64
2023-02-22T08:00:39.323Z,88.17
2023-02-22T08:03:08.905Z,87.81
2023-02-22T08:05:37.095Z,85.99
2023-02-22T08:08:06.187Z,86.11
2023-02-22T08:10:35.057Z,85.15
2023-02-22T08:13:02.130Z,85.53
2023-02-22T08:15:31.718Z,85.78
2023-02-22T08:18:00.259Z,85.80
2023-02-22T08:20:31.510Z,85.51
2023-02-22T08:22:59.419Z,84.82
2023-02-22T08:25:31.226Z,85.20
2023-02-22T08:28:01.334Z,85.42
2023-02-22T08:30:31.250Z,85.61
2023-02-22T08:32:58.617Z,85.03
2023-02-22T08:35:27.475Z,85.32
2023-02-22T08:37:55.245Z,85.32
2023-02-22T08:40:24.817Z,85.31
2023-02-22T08:42:52.086Z,85.57
2023-02-22T08:45:18.960Z,85.31
2023-02-22T08:47:45.960Z,85.06
2023-02-22T08:50:22.690Z,85.43
2023-02-22T08:53:01.723Z,84.90
2023-02-22T08:55:32.267Z,84.41
2023-02-22T08:58:03.277Z,83.91
2023-02-22T09:00:35.333Z,82.97
2023-02-22T09:03:03.525Z,82.95
2023-02-22T09:05:31.583Z,82.65
2023-02-22T09:07:58.655Z,82.79
2023-02-22T09:10:29.587Z,83.43
2023-02-22T09:12:57.001Z,84.12
2023-02-22T09:15:25.203Z,83.75
2023-02-22T09:17:52.218Z,82.98
2023-02-22T09:20:21.572Z,82.91
2023-02-22T09:22:49.484Z,83.03
2023-02-22T09:25:17.670Z,82.43
2023-02-22T09:27:48.015Z,81.22
2023-02-22T09:30:32.217Z,80.56
2023-02-22T09:33:02.351Z,79.82
2023-02-22T09:35:29.396Z,79.50
2023-02-22T09:37:57.655Z,78.93
2023-02-22T09:40:32.644Z,77.93
2023-02-22T09:43:01.986Z,78.21
2023-02-22T09:45:36.975Z,75.02
2023-02-22T09:48:20.856Z,73.41
2023-02-22T09:50:53.688Z,73.66
2023-02-22T09:53:29.750Z,73.14
2023-02-22T09:56:06.596Z,72.09
2023-02-22T09:58:43.177Z,69.68
2023-02-22T10:01:15.618Z,66.78
2023-02-22T10:03:48.164Z,68.79
2023-02-22T10:06:17.709Z,69.18
2023-02-22T10:08:45.321Z,69.29
2023-02-22T10:11:25.673Z,63.59
2023-02-22T10:14:29.842Z,64.27
2023-02-22T10:17:15.718Z,66.56
2023-02-22T10:20:02.013Z,64.81
2023-02-22T10:22:53.486Z,62.37
2023-02-22T10:25:27.492Z,65.29
2023-02-22T10:28:06.288Z,60.04
2023-02-22T10:30:49.307Z,61.44
2023-02-22T10:33:22.264Z,62.77
2023-02-22T10:35:52.670Z,63.31
2023-02-22T10:38:24.391Z,63.40
2023-02-22T10:40:57.950Z,66.01
2023-02-22T10:43:25.765Z,63.65
2023-02-22T10:46:02.938Z,62.63
2023-02-22T10:48:32.140Z,64.70
2023-02-22T10:51:02.113Z,64.62
2023-02-22T10:53:30.029Z,65.06
2023-02-22T10:56:22.493Z,64.38
2023-02-22T10:58:57.768Z,65.15
2023-02-22T11:01:37.877Z,64.38
2023-02-22T11:04:18.287Z,61.83
2023-02-22T11:06:48.358Z,60.47
2023-02-22T11:09:22.614Z,63.96
2023-02-22T11:11:53.701Z,63.44
2023-02-22T11:14:30.990Z,61.02
2023-02-22T11:16:59.487Z,59.71
2023-02-22T11:19:29.018Z,63.31
2023-02-22T11:21:59.468Z,60.00
2023-02-22T11:24:30.438Z,61.76
2023-02-22T11:27:05.937Z,62.58
2023-02-22T11:29:37.582Z,66.11
2023-02-22T11:32:22.514Z,63.46
2023-02-22T11:35:03.478Z,65.20
2023-02-22T11:37:34.780Z,66.03
2023-02-22T11:40:22.137Z,66.38
2023-02-22T11:42:57.222Z,65.49
2023-02-22T11:45:25.806Z,67.88
2023-02-22T11:48:01.439Z,67.26
2023-02-22T11:50:51.523Z,66.93
2023-02-22T11:53:34.562Z,67.03
2023-02-22T11:56:36.767Z,68.16
2023-02-22T11:59:26.826Z,68.54
2023-02-22T12:02:18.542Z,69.29
2023-02-22T12:05:08.141Z,70.45
2023-02-22T12:07:59.031Z,69.27
2023-02-22T12:10:38.785Z,69.62
2023-02-22T12:13:05.189Z,69.35
2023-02-22T12:15:51.428Z,69.06
2023-02-22T12:18:35.574Z,69.29
2023-02-22T12:21:08.530Z,69.35
2023-02-22T12:23:50.844Z,69.64
2023-02-22T12:26:39.641Z,70.87
2023-02-22T12:29:26.055Z,70.14
2023-02-22T12:32:00.825Z,70.78
2023-02-22T12:34:52.325Z,70.61
2023-02-22T12:37:34.970Z,69.80
2023-02-22T12:40:14.769Z,69.65
2023-02-22T12:42:55.791Z,69.56
2023-02-22T12:45:37.185Z,69.24
2023-02-22T12:48:26.309Z,69.20
2023-02-22T12:51:02.232Z,68.37
2023-02-22T12:53:35.380Z,67.79
2023-02-22T12:56:20.138Z,67.37
2023-02-22T12:58:56.938Z,65.99
2023-02-22T13:01:30.242Z,66.17
2023-02-22T13:03:57.019Z,67.49
2023-02-22T13:06:45.193Z,66.17
2023-02-22T13:09:57.887Z,66.51
2023-02-22T13:12:57.735Z,66.45
2023-02-22T13:15:24.357Z,67.48
2023-02-22T13:18:29.806Z,68.05
2023-02-22T13:21:16.597Z,68.79
2023-02-22T13:24:05.331Z,68.54
2023-02-22T13:26:43.865Z,68.23
2023-02-22T13:29:16.490Z,68.41
2023-02-22T13:32:04.654Z,68.52
2023-02-22T13:34:34.103Z,68.98
2023-02-22T13:37:37.731Z,68.79
2023-02-22T13:40:27.420Z,68.08
2023-02-22T13:43:14.645Z,69.61
2023-02-22T13:46:00.255Z,70.05
2023-02-22T13:48:56.406Z,70.79
2023-02-22T13:51:52.857Z,70.89
2023-02-22T13:54:40.431Z,71.47
2023-02-22T13:57:22.148Z,72.30
2023-02-22T13:59:49.285Z,72.62
2023-02-22T14:02:58.389Z,72.71
2023-02-22T14:05:40.945Z,72.72
2023-02-22T14:08:08.817Z,72.58
2023-02-22T14:10:57.719Z,72.80
2023-02-22T14:13:29.303Z,72.89
2023-02-22T14:15:59.976Z,72.40
2023-02-22T14:18:28.782Z,72.13
2023-02-22T14:21:16.892Z,72.15
2023-02-22T14:23:45.578Z,72.82
2023-02-22T14:26:33.910Z,73.05
2023-02-22T14:29:10.107Z,72.78
2023-02-22T14:31:50.099Z,72.08
2023-02-22T14:34:19.613Z,72.63
2023-02-22T14:37:12.347Z,72.44
2023-02-22T14:39:52.483Z,72.95
2023-02-22T14:42:28.291Z,73.43
2023-02-22T14:45:05.617Z,72.90
2023-02-22T14:47:49.491Z,72.95
2023-02-22T14:50:29.105Z,73.12
2023-02-22T14:53:18.623Z,73.47
2023-02-22T14:55:56.640Z,72.99
2023-02-22T14:58:29.407Z,73.68
2023-02-22T15:00:57.165Z,73.17
2023-02-22T15:03:23.972Z,73.31
2023-02-22T15:05:50.716Z,73.52
2023-02-22T15:08:18.923Z,73.31
2023-02-22T15:10:48.149Z,73.32
2023-02-22T15:13:18.901Z,74.22
2023-02-22T15:15:54.739Z,74.02
2023-02-22T15:18:27.203Z,73.66
2023-02-22T15:20:58.190Z,73.88
2023-02-22T15:23:30.329Z,73.78
2023-02-22T15:25:58.054Z,74.63
2023-02-22T15:28:29.067Z,74.27
2023-02-22T15:31:34.151Z,75.08
2023-02-22T15:34:30.701Z,75.60
2023-02-22T15:37:18.630Z,75.78
2023-02-22T15:39:45.211Z,77.26
2023-02-22T15:42:21.020Z,77.71
2023-02-22T15:44:49.780Z,78.08
2023-02-22T15:47:20.617Z,78.37
2023-02-22T15:50:25.646Z,78.05
2023-02-22T15:53:01.748Z,78.10
2023-02-22T15:55:37.610Z,77.63
2023-02-22T15:58:16.271Z,77.80
2023-02-22T16:01:07.145Z,77.77
2023-02-22T16:03:47.514Z,77.87
2023-02-22T16:06:28.640Z,77.50
2023-02-22T16:08:58.759Z,77.70
2023-02-22T16:11:32.957Z,77.35
2023-02-22T16:14:23.360Z,77.54
2023-02-22T16:16:50.109Z,78.10
2023-02-22T16:19:42.020Z,78.63
2023-02-22T16:22:23.597Z,78.95
2023-02-22T16:24:52.491Z,79.58
2023-02-22T16:27:21.002Z,80.45
2023-02-22T16:30:25.517Z,80.61
2023-02-22T16:32:55.384Z,80.69
2023-02-22T16:35:28.579Z,81.14
2023-02-22T16:38:16.895Z,81.98
2023-02-22T16:41:04.946Z,82.41
2023-02-22T16:43:35.314Z,82.75
2023-02-22T16:46:03.745Z,82.66
2023-02-22T16:48:38.264Z,82.85
2023-02-22T16:51:15.808Z,83.85
2023-02-22T16:53:42.807Z,84.42
2023-02-22T16:56:11.816Z,84.87
2023-02-22T16:58:40.571Z,85.72
2023-02-22T17:01:07.729Z,85.08
2023-02-22T17:03:34.391Z,86.24
2023-02-22T17:06:01.256Z,85.92
2023-02-22T17:08:27.880Z,87.17
2023-02-22T17:10:56.983Z,86.93
2023-02-22T17:13:27.272Z,87.72
2023-02-22T17:15:55.040Z,87.56
2023-02-22T17:18:23.557Z,87.93
2023-02-22T17:20:51.636Z,88.33
2023-02-22T17:23:19.232Z,88.83
2023-02-22T17:25:59.252Z,88.70
2023-02-22T17:28:26.608Z,88.24
2023-02-22T17:30:55.169Z,89.19
2023-02-22T17:33:27.278Z,89.32
2023-02-22T17:35:57.831Z,90.10
2023-02-22T17:38:29.098Z,90.39
2023-02-22T17:40:56.826Z,90.21
2023-02-22T17:43:25.017Z,89.81
2023-02-22T17:45:51.814Z,91.23
2023-02-22T17:48:18.604Z,90.71
2023-02-22T17:50:46.789Z,90.94
2023-02-22T17:53:13.888Z,92.18
2023-02-22T17:55:42.785Z,92.14
2023-02-22T17:58:14.542Z,92.53
2023-02-22T18:00:45.864Z,93.35
2023-02-22T18:03:16.206Z,93.97
2023-02-22T18:05:46.317Z,94.93
2023-02-22T18:08:14.203Z,93.85
2023-02-22T18:10:42.462Z,95.39
2023-02-22T18:13:09.824Z,95.87
2023-02-22T18:15:40.174Z,94.97
2023-02-22T18:18:06.843Z,95.11
2023-02-22T18:20:39.868Z,93.78
2023-02-22T18:23:08.153Z,92.81
2023-02-22T18:25:36.650Z,92.53
2023-02-22T18:28:06.331Z,92.99
2023-02-22T18:30:37.910Z,93.45
2023-02-22T18:33:04.722Z,93.35
2023-02-22T18:35:31.700Z,93.13
2023-02-22T18:37:58.355Z,92.35
2023-02-22T18:40:24.989Z,93.17
2023-02-22T18:42:51.588Z,93.47
2023-02-22T18:45:18.275Z,93.08
2023-02-22T18:47:45.597Z,93.16
2023-02-22T18:50:13.337Z,92.91
2023-02-22T18:52:46.078Z,93.43
2023-02-22T18:55:19.693Z,93.10
2023-02-22T18:57:47.488Z,92.87
2023-02-22T19:00:17.732Z,92.66
2023-02-22T19:02:44.435Z,92.82
2023-02-22T19:05:13.079Z,92.96
2023-02-22T19:07:39.923Z,92.69
2023-02-22T19:10:08.712Z,92.79
2023-02-22T19:12:36.141Z,92.82
2023-02-22T19:15:02.975Z,92.92
2023-02-22T19:17:31.159Z,92.46
2023-02-22T19:19:57.800Z,92.89
2023-02-22T19:22:26.372Z,93.07
2023-02-22T19:24:57.321Z,91.50
2023-02-22T19:27:24.901Z,92.69
2023-02-22T19:29:51.890Z,92.12
2023-02-22T19:32:18.918Z,91.77
2023-02-22T19:34:45.851Z,92.73
2023-02-22T19:37:13.185Z,91.54
2023-02-22T19:39:42.464Z,91.83
2023-02-22T19:42:10.305Z,92.40
2023-02-22T19:44:37.440Z,92.48
2023-02-22T19:47:09.033Z,92.89
2023-02-22T19:49:37.498Z,91.17
2023-02-22T19:52:06.593Z,91.45
2023-02-22T19:54:33.766Z,91.89
2023-02-22T19:57:00.777Z,93.48
2023-02-22T19:59:28.031Z,94.14
2023-02-22T20:01:56.132Z,94.14
2023-02-22T20:04:23.379Z,93.59
2023-02-22T20:06:54.608Z,93.44
2023-02-22T20:09:23.981Z,93.33
2023-02-22T20:11:53.861Z,93.05
2023-02-22T20:14:23.553Z,93.27
2023-02-22T20:16:51.790Z,93.67
2023-02-22T20:19:18.590Z,94.43
2023-02-22T20:21:45.274Z,94.37
2023-02-22T20:24:15.331Z,94.56
2023-02-22T20:26:43.327Z,94.76
2023-02-22T20:29:13.794Z,95.01
2023-02-22T20:31:42.117Z,95.15
2023-02-22T20:34:12.029Z,94.47
2023-02-22T20:36:41.403Z,94.48
2023-02-22T20:39:13.473Z,94.86
2023-02-22T20:41:42.681Z,94.70
2023-02-22T20:44:13.544Z,95.29
2023-02-22T20:46:40.242Z,94.54
2023-02-22T20:49:13.814Z,94.78
2023-02-22T20:51:41.860Z,94.54
2023-02-22T20:54:12.112Z,94.56
2023-02-22T20:56:41.925Z,94.83
2023-02-22T20:59:14.452Z,95.21
2023-02-22T21:01:42.250Z,95.54
2023-02-22T21:04:10.355Z,97.42
2023-02-22T21:06:39.017Z,95.62
2023-02-22T21:09:08.788Z,96.02
2023-02-22T21:11:35.677Z,96.24
2023-02-22T21:14:03.226Z,95.46
2023-02-22T21:16:33.381Z,96.15
2023-02-22T21:19:02.722Z,96.51
2023-02-22T21:21:30.879Z,96.41
2023-02-22T21:24:01.977Z,96.91
2023-02-22T21:26:31.217Z,97.41
2023-02-22T21:29:00.520Z,97.77
2023-02-22T21:31:28.017Z,98.01
2023-02-22T21:33:57.345Z,97.99
2023-02-22T21:36:27.217Z,98.34
2023-02-22T21:38:58.713Z,98.85
2023-02-22T21:41:30.229Z,98.71
2023-02-22T21:43:58.438Z,99.79
2023-02-22T21:46:27.303Z,100.00
2023-02-22T21:48:53.952Z,100.00
2023-02-22T21:51:25.842Z,100.00
2023-02-22T21:53:54.698Z,100.00
2023-02-22T21:56:29.089Z,100.00
2023-02-22T21:59:03.256Z,100.00
2023-02-22T22:01:33.878Z,100.00
2023-02-22T22:04:01.948Z,100.00
2023-02-22T22:06:30.388Z,100.00
2023-02-22T22:08:59.829Z,100.00
2023-02-22T22:11:26.723Z,100.00
2023-02-22T22:13:57.564Z,100.00
2023-02-22T22:16:27.146Z,100.00
2023-02-22T22:18:54.808Z,100.00
2023-02-22T22:21:23.985Z,100.00
2023-02-22T22:23:54.340Z,100.00
2023-02-22T22:26:24.532Z,100.00
2023-02-22T22:28:57.735Z,100.00
2023-02-22T22:31:26.118Z,100.00
2023-02-22T22:33:54.163Z,100.00
2023-02-22T22:36:22.399Z,100.00
2023-02-22T22:38:49.322Z,100.00
2023-02-22T22:41:18.897Z,100.00
2023-02-22T22:43:46.192Z,100.00
2023-02-22T22:46:15.381Z,100.00
2023-02-22T22:48:43.166Z,100.00
2023-02-22T22:51:13.140Z,100.00
2023-02-22T22:53:42.772Z,100.00
2023-02-22T22:56:15.837Z,100.00
2023-02-22T22:58:46.866Z,100.00
2023-02-22T23:01:19.619Z,100.00
2023-02-22T23:03:56.701Z,100.00
2023-02-22T23:06:26.533Z,100.00
2023-02-22T23:09:04.007Z,100.00
2023-02-22T23:11:33.717Z,100.00
2023-02-22T23:14:03.560Z,100.00
2023-02-22T23:16:32.287Z,100.00
2023-02-22T23:18:59.056Z,100.00
2023-02-22T23:21:26.012Z,100.00
2023-02-22T23:23:58.278Z,100.00
2023-02-22T23:26:27.144Z,99.63
2023-02-22T23:28:56.296Z,99.71
2023-02-22T23:31:23.671Z,99.88
2023-02-22T23:33:50.641Z,99.23
2023-02-22T23:36:18.561Z,98.17
2023-02-22T23:38:46.030Z,98.22
2023-02-22T23:41:18.677Z,99.29
2023-02-22T23:43:45.857Z,100.00
2023-02-22T23:46:18.412Z,100.00
2023-02-22T23:48:50.786Z,99.17
2023-02-22T23:51:20.768Z,99.52
2023-02-22T23:53:49.137Z,99.37
2023-02-22T23:56:20.975Z,99.18
2023-02-22T23:58:50.446Z,100.00
